Texas Enterprise — KSDF — position and weather

sailwx.info

Track history (hours):
 
Tides and Currents Weather Stations Pressure Air Temp Water Temp Dewpoint Dewpoint Depression Visibility Wind Speed Wind Dir Waves Ship Positions

Texas Enterprise

Owner: U.S. United Ocean Services, LLC, Tampa, FL. More information available from US FCC via Universal Licensing System and Coast Guard Vessel Documentation Center.

Last reported at 2016-Feb-06 14:26 UTC. Time now 2016-Feb-10 10:47 UTC.
Position N 35°57' W 006°02'.

Type: Cargo ship. MMSI: 366163000.

Date/timePositionNaut miles runAvg speedWind from/ knotsBaromVisibWave heightAir tempDewpointWater temp
2016-Feb-06 14:26N 35°57' W 006°02'1713.3
2016-Feb-06 13:09N 35°57' W 005°41'813.9
2016-Feb-06 12:33N 35°59' W 005°31'1312.8
2016-Feb-06 11:33N 36°03' W 005°16'21914.2
2016-Feb-05 20:10N 36°29' W 000°47'4114.6
2016-Feb-05 17:23N 36°39' E 000°02'1315.0
2016-Feb-05 16:33N 36°41' E 000°18'1615.1
2016-Feb-05 15:28N 36°45' E 000°38'1515.3
2016-Feb-05 14:29N 36°49' E 000°56'61912.2
2016-Feb-03 11:32N 36°30' E 013°47'1414.2
2016-Feb-03 10:33N 36°26' E 014°04'1414.3
2016-Feb-03 09:33N 36°22' E 014°21'1414.5
2016-Feb-03 08:33N 36°17' E 014°38'  
Track history (hours):
 
Tides and Currents Weather Stations Pressure Air Temp Water Temp Dewpoint Dewpoint Depression Visibility Wind Speed Wind Dir Waves Ship Positions

Texas Enterprise

Owner: U.S. United Ocean Services, LLC, Tampa, FL. More information available from US FCC via Universal Licensing System and Coast Guard Vessel Documentation Center.

Last reported at 2016-Feb-06 14:26 UTC. Time now 2016-Feb-10 10:47 UTC.
Position N 35°57' W 006°02'.

Type: Cargo ship. MMSI: 366163000.

Date/timePositionNaut miles runAvg speedWind from/ knotsBaromVisibWave heightAir tempDewpointWater temp
2016-Feb-06 14:26N 35°57' W 006°02'1713.3
2016-Feb-06 13:09N 35°57' W 005°41'813.9
2016-Feb-06 12:33N 35°59' W 005°31'1312.8
2016-Feb-06 11:33N 36°03' W 005°16'21914.2
2016-Feb-05 20:10N 36°29' W 000°47'4114.6
2016-Feb-05 17:23N 36°39' E 000°02'1315.0
2016-Feb-05 16:33N 36°41' E 000°18'1615.1
2016-Feb-05 15:28N 36°45' E 000°38'1515.3
2016-Feb-05 14:29N 36°49' E 000°56'61912.2
2016-Feb-03 11:32N 36°30' E 013°47'1414.2
2016-Feb-03 10:33N 36°26' E 014°04'1414.3
2016-Feb-03 09:33N 36°22' E 014°21'1414.5
2016-Feb-03 08:33N 36°17' E 014°38'  

Dump ship's entire track history